Weather History for Coatesville, PA

Change the Weather History Date:

Saturday, September 1, 2012

  Actual Average (KLNS) Record (KLNS)
Temperature  
Mean Temperature 78 °F -  
Max Temperature 87 °F 81 °F 96 °F (2010)
Min Temperature 69 °F 59 °F 46 °F (1986)
Cooling Degree Days 13    
Growing Degree Days 28 (Base 50)    
Moisture  
Dew Point 64 °F    
Average Humidity 62    
Maximum Humidity 83    
Minimum Humidity 40    
Precipitation  
Precipitation 0.00 in - - ()
Sea Level Pressure  
Sea Level Pressure 30.05 in    
Wind  
Wind Speed 6 mph (NW)    
Max Wind Speed 10 mph    
Max Gust Speed -    
Visibility 10 miles    
Events      
Averages and records for this station are not official NWS values.
T = Trace of Precipitation, MM = Missing Value Source: NWS Daily Summary

Daily Weather History Graph

Daily Weather History Graph

Search for Another Location

Airport:

Trip Planner

Search our weather history database for the weather conditions in past years. The results will help you decide how hot, cold, wet, or windy it might be!

Date:

Astronomy

Sep. 01, 2012 Rise Set
Actual Time 6:31 AM EDT 7:34 PM EDT
Civil Twilight 6:03 AM EDT 8:01 PM EDT
Nautical Twilight 5:30 AM EDT 8:34 PM EDT
Astronomical Twilight 4:56 AM EDT 9:09 PM EDT
Moon 7:49 PM EDT 7:36 AM EDT
Length of Visible Light 13h 57m
Length of Day
13h 02m
Full, 99% of the Moon is Illuminated
Sep 1
Full
Sep 8
Last Quarter
Sep 15
New
Sep 22
First Quarter
Sep 29
Full

Hourly Weather History & Observations

Time (EDT) Temp. Heat Index Dew Point Humidity Pressure Visibility Wind Dir Wind Speed Gust Speed Precip Events Conditions
12:15 AM 73.4 °F - 62.6 °F 69% 30.02 in 10.0 mi West 4.6 mph - N/A   Clear
12:35 AM 75.2 °F - 62.6 °F 65% 30.03 in 10.0 mi West 5.8 mph - N/A   Clear
12:55 AM 75.2 °F - 62.6 °F 65% 30.03 in 10.0 mi West 6.9 mph - N/A   Clear
1:15 AM 75.2 °F - 60.8 °F 61% 30.03 in 10.0 mi West 6.9 mph - N/A   Clear
1:35 AM 71.6 °F - 62.6 °F 73% 30.03 in 10.0 mi West 5.8 mph - N/A   Clear
2:15 AM 71.6 °F - 62.6 °F 73% 30.02 in 10.0 mi West 4.6 mph - N/A   Clear
2:35 AM 69.8 °F - 62.6 °F 78% 30.02 in 10.0 mi West 4.6 mph - N/A   Clear
2:55 AM 71.6 °F - 62.6 °F 73% 30.01 in 10.0 mi WNW 3.5 mph - N/A   Clear
3:15 AM 71.6 °F - 62.6 °F 73% 30.02 in 10.0 mi West 4.6 mph - N/A   Clear
3:35 AM 69.8 °F - 62.6 °F 78% 30.02 in 10.0 mi West 4.6 mph - N/A   Clear
3:55 AM 71.6 °F - 62.6 °F 73% 30.02 in 10.0 mi West 4.6 mph - N/A   Clear
4:15 AM 69.8 °F - 64.4 °F 83% 30.02 in 10.0 mi WNW 4.6 mph - N/A   Clear
4:35 AM 71.6 °F - 64.4 °F 78% 30.03 in 10.0 mi West 4.6 mph - N/A   Clear
4:55 AM 73.4 °F - 64.4 °F 73% 30.03 in 10.0 mi West 4.6 mph - N/A   Clear
5:15 AM 71.6 °F - 64.4 °F 78% 30.03 in 10.0 mi WNW 5.8 mph - N/A   Clear
5:35 AM 69.8 °F - 64.4 °F 83% 30.03 in 10.0 mi WNW 5.8 mph - N/A   Clear
5:55 AM 69.8 °F - 64.4 °F 83% 30.04 in 10.0 mi WNW 5.8 mph - N/A   Clear
6:15 AM 69.8 °F - 64.4 °F 83% 30.05 in 10.0 mi WNW 5.8 mph - N/A   Clear
6:35 AM 71.6 °F - 64.4 °F 78% 30.05 in 10.0 mi WNW 5.8 mph - N/A   Clear
6:55 AM 73.4 °F - 64.4 °F 73% 30.06 in 10.0 mi West 6.9 mph - N/A   Clear
7:15 AM 73.4 °F - 64.4 °F 73% 30.06 in 10.0 mi WNW 5.8 mph - N/A   Clear
7:35 AM 75.2 °F - 64.4 °F 69% 30.06 in 10.0 mi WNW 4.6 mph - N/A   Clear
7:55 AM 75.2 °F - 64.4 °F 69% 30.06 in 10.0 mi West 4.6 mph - N/A   Clear
8:15 AM 75.2 °F - 66.2 °F 73% 30.07 in 10.0 mi West 5.8 mph - N/A   Clear
8:35 AM 77.0 °F - 66.2 °F 69% 30.07 in 10.0 mi West 4.6 mph - N/A   Clear
8:55 AM 78.8 °F - 66.2 °F 65% 30.07 in 10.0 mi West 4.6 mph - N/A   Clear
9:15 AM 80.6 °F 82.7 °F 66.2 °F 61% 30.07 in 10.0 mi NW 10.4 mph - N/A   Clear
9:35 AM 80.6 °F 82.7 °F 66.2 °F 61% 30.08 in 10.0 mi NW 6.9 mph - N/A   Clear
9:55 AM 82.4 °F 85.4 °F 68.0 °F 62% 30.08 in 10.0 mi NW 10.4 mph - N/A   Clear
10:15 AM 82.4 °F 85.4 °F 68.0 °F 62% 30.09 in 10.0 mi NW 10.4 mph - N/A   Partly Cloudy
10:35 AM 84.2 °F 88.4 °F 69.8 °F 62% 30.08 in 10.0 mi NNW 6.9 mph - N/A   Clear
10:55 AM 84.2 °F 87.3 °F 68.0 °F 58% 30.09 in 10.0 mi NNW 5.8 mph - N/A   Clear
11:15 AM 84.2 °F 88.4 °F 69.8 °F 62% 30.08 in 9.0 mi NW 6.9 mph - N/A   Clear
11:35 AM 84.2 °F 86.6 °F 66.2 °F 55% 30.08 in 10.0 mi NNW 6.9 mph - N/A   Clear
11:55 AM 87.8 °F 89.4 °F 64.4 °F 46% 30.08 in 10.0 mi NW 8.1 mph - N/A   Clear
12:15 PM 87.8 °F 87.6 °F 60.8 °F 40% 30.07 in 9.0 mi North 6.9 mph - N/A   Clear
12:35 PM 87.8 °F 89.4 °F 64.4 °F 46% 30.07 in 10.0 mi NNW 6.9 mph - N/A   Clear
12:55 PM 87.8 °F 88.5 °F 62.6 °F 43% 30.07 in 10.0 mi North 8.1 mph - N/A   Scattered Clouds
1:15 PM 86.0 °F 87.3 °F 64.4 °F 48% 30.07 in 10.0 mi North 5.8 mph - N/A   Scattered Clouds
1:35 PM 86.0 °F 86.6 °F 62.6 °F 45% 30.07 in 10.0 mi NW 5.8 mph - N/A   Partly Cloudy
1:55 PM 84.2 °F 85.6 °F 64.4 °F 51% 30.07 in 10.0 mi NNW 5.8 mph - N/A   Scattered Clouds
2:15 PM 86.0 °F 88.2 °F 66.2 °F 51% 30.06 in 10.0 mi NW 6.9 mph - N/A   Scattered Clouds
2:35 PM 87.8 °F 89.4 °F 64.4 °F 46% 30.06 in 10.0 mi WNW 6.9 mph - N/A   Clear
2:55 PM 87.8 °F 89.4 °F 64.4 °F 46% 30.05 in 10.0 mi NNW 9.2 mph - N/A   Clear
3:15 PM 86.0 °F 86.6 °F 62.6 °F 45% 30.05 in 10.0 mi NW 9.2 mph - N/A   Clear
3:35 PM 87.8 °F 88.5 °F 62.6 °F 43% 30.05 in 10.0 mi WNW 9.2 mph - N/A   Clear
3:55 PM 87.8 °F 88.5 °F 62.6 °F 43% 30.04 in 10.0 mi NW 8.1 mph - N/A   Clear
4:15 PM 86.0 °F 86.6 °F 62.6 °F 45% 30.04 in 10.0 mi NNW 9.2 mph - N/A   Clear
4:35 PM 86.0 °F 87.3 °F 64.4 °F 48% 30.04 in 10.0 mi NW 6.9 mph - N/A   Clear
4:55 PM 84.2 °F 85.0 °F 62.6 °F 48% 30.03 in 10.0 mi North 5.8 mph - N/A   Clear
5:15 PM 84.2 °F 85.0 °F 62.6 °F 48% 30.03 in 10.0 mi North 3.5 mph - N/A   Clear
5:35 PM 84.2 °F 85.0 °F 62.6 °F 48% 30.03 in 10.0 mi NNW 5.8 mph - N/A   Clear
5:55 PM 84.2 °F 84.4 °F 60.8 °F 45% 30.03 in 10.0 mi NNW 5.8 mph - N/A   Clear
6:15 PM 82.4 °F 83.4 °F 62.6 °F 51% 30.03 in 10.0 mi NNW 3.5 mph - N/A   Clear
6:35 PM 82.4 °F 83.4 °F 62.6 °F 51% 30.04 in 10.0 mi NNW 3.5 mph - N/A   Clear
6:55 PM 82.4 °F 83.4 °F 62.6 °F 51% 30.04 in 10.0 mi NNW 3.5 mph - N/A   Clear
7:15 PM 78.8 °F - 64.4 °F 61% 30.05 in 10.0 mi NW 4.6 mph - N/A   Clear
7:35 PM 78.8 °F - 62.6 °F 57% 30.06 in 10.0 mi NW 3.5 mph - N/A   Clear
7:55 PM 77.0 °F - 62.6 °F 61% 30.06 in 10.0 mi NW 3.5 mph - N/A   Clear
8:15 PM 77.0 °F - 62.6 °F 61% 30.06 in 10.0 mi WNW 3.5 mph - N/A   Clear
8:35 PM 75.2 °F - 64.4 °F 69% 30.06 in 10.0 mi West 3.5 mph - N/A   Clear
8:55 PM 73.4 °F - 64.4 °F 73% 30.07 in 10.0 mi WNW 3.5 mph - N/A   Clear
9:15 PM 75.2 °F - 62.6 °F 65% 30.07 in 10.0 mi NW 3.5 mph - N/A   Clear
9:35 PM 73.4 °F - 64.4 °F 73% 30.07 in 10.0 mi Calm Calm - N/A   Clear
9:55 PM 75.2 °F - 62.6 °F 65% 30.07 in 10.0 mi NNW 3.5 mph - N/A   Clear
10:15 PM 75.2 °F - 62.6 °F 65% 30.07 in 10.0 mi NNW 4.6 mph - N/A   Clear
10:35 PM 75.2 °F - 62.6 °F 65% 30.07 in 10.0 mi North 4.6 mph - N/A   Clear
10:55 PM 75.2 °F - 62.6 °F 65% 30.07 in 10.0 mi North 4.6 mph - N/A   Clear
11:15 PM 75.2 °F - 62.6 °F 65% 30.07 in 10.0 mi North 3.5 mph - N/A   Clear
11:35 PM 75.2 °F - 62.6 °F 65% 30.07 in 10.0 mi NNE 3.5 mph - N/A   Clear
11:55 PM 73.4 °F - 62.6 °F 69% 30.07 in 10.0 mi Calm Calm - N/A   Clear